Latest Weather Observations for Casino

IDN60801

Issued at 1:32 pm EDT Thursday 23 February 2017 (issued every 30 minutes, with the page automatically refreshed every 10 minutes)

About weather observations | Map of weather stations | Latest weather observations for NSW | Other Formats
Station Details ID: 058208 Name: CASINO AIRPORT AWS Lat: -28.88 Lon: 153.06 Height: 20.9 m
Data from the previous 72 hours. | See also: Recent months at Casino
Date/Time
EDT
Temp
°C
App
Temp
°C
Dew
Point
°C
Rel
Hum
%
Delta-T
°C
Wind Press
QNH
hPa
Press
MSL
hPa
Rain since
9am
mm
Dir  Spd
km/h
Gust
km/h
Spd
kts
Gust
kts
23/01:30pm 30.4 28.1 11.9 32 10.8 E 15 26 8 14 1018.6 1018.5 0.0
23/01:00pm 30.4 28.3 12.3 33 10.6 ESE 15 28 8 15 1019.0 1018.9 0.0
23/12:30pm 30.8 29.9 13.6 35 10.3 S 11 24 6 13 1019.4 1019.3 0.0
23/12:00pm 28.6 27.9 12.1 36 9.6 ENE 7 15 4 8 1019.6 1019.5 0.0
23/11:30am 28.7 27.0 12.6 37 9.4 SSE 13 20 7 11 1019.8 1019.7 0.0
23/11:00am 28.2 27.5 14.4 42 8.3 ESE 11 20 6 11 1020.1 1020.0 0.0
23/10:30am 27.8 26.3 14.1 43 8.2 S 15 20 8 11 1020.4 1020.3 0.0
23/10:00am 26.4 26.0 16.3 53 6.2 SE 13 20 7 11 1020.5 1020.4 0.0
23/09:30am 26.2 26.6 16.2 54 6.1 SSE 9 15 5 8 1020.5 1020.4 0.0
23/09:00am 24.7 26.3 17.9 66 4.3 S 6 9 3 5 1020.5 1020.4 0.0
23/08:30am 22.8 24.2 17.7 73 3.2 S 7 11 4 6 1020.4 1020.3 0.0
23/08:00am 19.7 21.5 16.5 82 1.9 WNW 2 6 1 3 1020.1 1020.0 0.0
23/07:30am 18.5 21.0 17.2 92 0.8 CALM 0 0 0 0 1020.0 1019.9 0.0
23/07:00am 16.0 17.3 14.2 89 1.0 CALM 0 0 0 0 1019.6 1019.5 0.0
23/06:30am 16.2 17.5 14.2 88 1.1 CALM 0 0 0 0 1019.3 1019.2 0.0
23/06:00am 16.4 17.7 14.2 87 1.2 CALM 0 0 0 0 1019.1 1019.0 0.0
23/05:30am 17.4 19.0 14.9 85 1.4 CALM 0 0 0 0 1018.9 1018.8 0.0
23/05:00am 18.6 20.5 15.7 83 1.7 CALM 0 0 0 0 1018.7 1018.6 0.0
23/04:30am 19.2 21.4 16.6 85 1.6 CALM 0 0 0 0 1018.7 1018.6 0.0
23/04:00am 19.0 21.0 15.9 82 1.8 CALM 0 0 0 0 1018.8 1018.7 0.0
23/03:30am 19.5 21.6 16.2 81 2.0 CALM 0 0 0 0 1018.9 1018.8 0.0
23/03:00am 19.6 21.8 16.6 83 1.8 CALM 0 0 0 0 1019.2 1019.1 0.0
23/02:30am 19.4 21.6 16.6 84 1.7 CALM 0 0 0 0 1019.4 1019.3 0.0
23/02:00am 19.1 21.0 15.8 81 2.0 CALM 0 0 0 0 1019.5 1019.4 0.0
23/01:30am 19.5 21.3 15.6 78 2.3 CALM 0 0 0 0 1019.7 1019.6 0.0
23/01:00am 19.9 20.6 15.5 76 2.6 SW 6 9 3 5 1020.0 1019.9 0.0
23/12:30am 19.6 20.2 15.9 79 2.2 SW 7 11 4 6 1020.3 1020.2 0.0
23/12:00am 19.4 20.9 15.7 79 2.2 SW 2 9 1 5 1020.4 1020.3 0.0
 
Date/Time
EDT
Temp
°C
App
Temp
°C
Dew
Point
°C
Rel
Hum
%
Delta-T
°C
Wind Press
QNH
hPa
Press
MSL
hPa
Rain since
9am
mm
Dir  Spd
km/h
Gust
km/h
Spd
kts
Gust
kts
22/11:30pm 20.2 22.1 15.8 76 2.6 CALM 0 0 0 0 1020.4 1020.3 0.0
22/11:00pm 20.4 22.5 16.2 77 2.5 CALM 0 0 0 0 1020.4 1020.3 0.0
22/10:30pm 20.2 21.8 16.0 77 2.5 SSW 2 7 1 4 1020.4 1020.3 0.0
22/10:00pm 19.5 20.4 16.0 80 2.1 SSW 6 7 3 4 1020.5 1020.4 0.0
22/09:30pm 18.4 18.6 14.1 76 2.5 SSE 6 7 3 4 1020.4 1020.3 0.0
22/09:00pm 19.8 21.2 14.4 71 3.1 CALM 0 0 0 0 1020.2 1020.1 0.0
22/08:30pm 20.8 20.8 14.2 66 3.8 SE 7 7 4 4 1019.7 1019.6 0.0
22/08:00pm 22.2 21.2 14.6 62 4.5 SE 13 17 7 9 1019.6 1019.5 0.0
22/07:30pm 23.2 21.3 14.2 57 5.3 ESE 17 24 9 13 1019.2 1019.1 0.0
22/07:00pm 24.2 21.4 14.3 54 5.8 ESE 22 28 12 15 1018.9 1018.8 0.0
22/06:30pm 25.5 22.3 14.3 50 6.7 ESE 24 32 13 17 1018.7 1018.6 0.0
22/06:00pm 26.9 24.2 15.6 50 6.9 ESE 24 35 13 19 1018.6 1018.5 0.0
22/05:30pm 27.7 24.2 15.4 47 7.5 E 28 39 15 21 1018.4 1018.3 0.0
22/05:00pm 28.4 25.6 15.3 45 8.0 SE 24 33 13 18 1018.3 1018.2 0.0
22/04:30pm 29.0 26.0 14.8 42 8.6 ESE 24 33 13 18 1018.2 1018.1 0.0
22/04:00pm 29.0 25.3 14.0 39 9.0 E 26 39 14 21 1018.3 1018.2 0.0
22/03:30pm 29.8 27.8 15.5 42 8.8 ESE 20 28 11 15 1018.4 1018.3 0.0
22/03:00pm 28.2 26.0 14.8 44 8.1 ESE 20 33 11 18 1018.7 1018.6 0.0
22/02:30pm 27.6 25.3 15.6 48 7.3 ESE 22 32 12 17 1019.1 1019.0 0.0
22/02:00pm 27.8 25.3 15.1 46 7.7 ESE 22 33 12 18 1019.4 1019.3 0.0
22/01:30pm 28.7 26.1 13.8 40 8.9 ESE 20 32 11 17 1019.5 1019.4 0.0
22/01:00pm 28.0 26.4 15.0 45 7.9 SE 17 26 9 14 1019.8 1019.7 0.0
22/12:30pm 29.1 27.6 16.3 46 8.0 ESE 19 24 10 13 1020.2 1020.1 0.0
22/12:00pm 28.3 26.2 15.2 44 8.0 ESE 20 28 11 15 1020.5 1020.4 0.0
22/11:30am 26.2 24.7 16.2 54 6.1 SE 19 24 10 13 1020.8 1020.7 0.0
22/11:00am 26.6 24.5 15.3 50 6.8 SE 20 28 11 15 1020.9 1020.8 0.0
22/10:30am 27.2 27.8 18.5 59 5.6 SE 13 19 7 10 1021.0 1020.9 0.0
22/10:00am 25.5 25.6 17.4 61 5.0 SE 13 20 7 11 1021.2 1021.1 0.0
22/09:30am 25.7 25.9 17.6 61 5.1 SSE 13 20 7 11 1021.2 1021.1 0.0
22/09:00am 24.1 25.4 18.5 71 3.5 S 9 15 5 8 1021.1 1021.0 0.0
22/08:30am 22.1 24.2 18.9 82 2.0 S 6 9 3 5 1021.0 1020.9 0.0
22/08:00am 20.9 22.8 18.5 86 1.5 SW 6 7 3 4 1020.8 1020.7 0.0
22/07:30am 20.3 23.3 18.4 89 1.2 CALM 0 0 0 0 1020.6 1020.5 0.0
22/07:00am 19.9 22.7 17.9 88 1.2 CALM 0 0 0 0 1020.1 1020.0 0.0
22/06:30am 19.9 22.5 17.5 86 1.5 CALM 0 0 0 0 1019.6 1019.5 0.0
22/06:00am 20.3 23.1 17.9 86 1.5 CALM 0 0 0 0 1019.6 1019.5 0.0
22/05:30am 20.2 23.0 18.0 87 1.4 CALM 0 0 0 0 1019.2 1019.1 0.0
22/05:00am 19.8 22.4 17.6 87 1.3 CALM 0 0 0 0 1018.9 1018.8 0.0
22/04:30am 20.2 22.9 17.8 86 1.5 CALM 0 0 0 0 1018.8 1018.7 0.0
22/04:00am 20.8 23.7 18.2 85 1.6 CALM 0 0 0 0 1018.7 1018.6 0.0
22/03:30am 20.5 23.3 17.9 85 1.6 CALM 0 0 0 0 1018.6 1018.5 0.0
22/03:00am 20.8 23.6 18.0 84 1.7 CALM 0 0 0 0 1018.6 1018.5 0.0
22/02:30am 21.4 24.2 18.0 81 2.1 CALM 0 0 0 0 1018.7 1018.6 0.0
22/02:00am 21.6 22.6 17.8 79 2.3 SSW 9 11 5 6 1019.0 1018.9 0.0
22/01:30am 21.1 22.0 17.5 80 2.2 SW 9 11 5 6 1019.0 1018.9 0.0
22/01:00am 20.2 21.6 17.4 84 1.7 SW 6 9 3 5 1019.5 1019.4 0.0
22/12:30am 20.6 22.8 17.4 82 2.0 SW 2 7 1 4 1019.4 1019.3 0.0
22/12:00am 21.3 23.0 18.1 82 2.0 SSW 6 7 3 4 1019.7 1019.6 0.0
 
Date/Time
EDT
Temp
°C
App
Temp
°C
Dew
Point
°C
Rel
Hum
%
Delta-T
°C
Wind Press
QNH
hPa
Press
MSL
hPa
Rain since
9am
mm
Dir  Spd
km/h
Gust
km/h
Spd
kts
Gust
kts
21/11:30pm 21.4 23.1 18.4 83 1.9 SSW 7 9 4 5 1020.0 1019.9 0.0
21/11:00pm 21.7 23.4 18.5 82 2.0 SSW 7 11 4 6 1020.1 1020.0 0.0
21/10:30pm 22.1 23.4 18.5 80 2.3 S 9 13 5 7 1020.1 1020.0 0.0
21/10:00pm 22.4 24.1 18.6 79 2.4 SSW 7 9 4 5 1020.0 1019.9 0.0
21/09:30pm 23.1 24.9 18.2 74 3.1 SSW 6 9 3 5 1020.0 1019.9 0.0
21/09:00pm 23.4 25.0 18.3 73 3.2 SSE 7 11 4 6 1019.8 1019.7 0.0
21/08:30pm 23.6 24.9 18.5 73 3.2 S 9 9 5 5 1019.5 1019.4 0.0
21/08:00pm 23.9 25.4 19.0 74 3.1 SSE 9 13 5 7 1019.2 1019.1 0.0
21/07:30pm 24.0 25.3 18.4 71 3.5 SSE 9 13 5 7 1018.9 1018.8 0.0
21/07:00pm 24.9 24.9 18.1 66 4.3 SE 15 22 8 12 1018.3 1018.2 0.0
21/06:30pm 25.8 25.5 18.2 63 4.8 SE 17 24 9 13 1018.1 1018.0 0.0
21/06:00pm 25.8 25.8 18.2 63 4.8 SE 15 22 8 12 1018.0 1017.9 0.0
21/05:30pm 27.2 25.8 17.9 56 5.9 SE 22 37 12 20 1017.5 1017.4 0.0
21/05:00pm 25.5 25.1 19.4 69 3.9 SE 20 28 11 15 1017.4 1017.3 0.0
21/04:30pm 26.1 25.7 18.8 64 4.7 SE 19 28 10 15 1017.4 1017.3 0.0
21/04:00pm 28.3 28.5 20.1 61 5.4 SE 19 26 10 14 1017.1 1017.0 0.0
21/03:30pm 27.1 27.5 18.9 61 5.3 SE 15 24 8 13 1017.2 1017.1 0.0
21/03:00pm 26.8 27.0 18.6 60 5.2 SE 15 26 8 14 1017.2 1017.1 0.0
21/02:30pm 26.5 26.9 18.1 60 5.3 SSE 13 19 7 10 1017.3 1017.2 0.0
21/02:00pm 26.4 25.8 17.5 58 5.6 S 17 22 9 12 1017.5 1017.4 0.0
21/01:30pm 27.2 27.8 17.7 56 6.0 SSE 11 17 6 9 1017.7 1017.6 0.0
21/01:00pm 26.6 26.9 17.1 56 5.9 SE 11 17 6 9 1017.8 1017.7 0.0
21/12:30pm 27.0 27.7 18.0 58 5.7 SE 11 17 6 9 1018.2 1018.1 0.0
21/12:00pm 25.7 26.1 18.1 63 4.8 SSE 13 20 7 11 1018.6 1018.5 0.0
21/11:30am 24.5 25.7 18.2 68 4.0 SSE 9 15 5 8 1019.0 1018.9 0.0
21/11:00am 24.4 25.0 16.9 63 4.6 SSW 9 13 5 7 1019.1 1019.0 0.0
21/10:30am 23.5 24.7 17.3 68 3.8 SW 7 11 4 6 1019.1 1019.0 0.0
21/10:00am 22.8 23.5 17.0 70 3.6 SW 9 11 5 6 1019.0 1018.9 0.0
21/09:30am 22.3 22.7 16.3 69 3.6 SW 9 11 5 6 1018.6 1018.5 0.0
21/09:00am 22.0 23.3 17.2 74 2.9 WSW 6 9 3 5 1018.4 1018.3 0.0
21/08:30am 21.6 22.2 16.8 74 2.9 WSW 9 13 5 7 1017.9 1017.8 0.0
21/08:00am 20.7 22.1 17.9 84 1.7 WSW 7 11 4 6 1017.6 1017.5 0.0
21/07:30am 20.4 21.5 17.2 82 2.0 WSW 7 9 4 5 1017.2 1017.1 0.0
21/07:00am 20.1 22.5 16.9 82 1.9 CALM 0 0 0 0 1016.5 1016.4 0.0
21/06:30am 19.5 20.4 16.7 84 1.7 N 7 9 4 5 1016.1 1015.9 0.0
21/06:00am 19.0 19.6 16.8 87 1.3 N 9 11 5 6 1015.6 1015.4 0.0
21/05:30am 19.3 20.4 16.5 84 1.7 NW 6 7 3 4 1015.2 1015.0 0.0
21/05:00am 19.6 20.6 16.8 84 1.7 NE 7 13 4 7 1015.1 1014.9 0.0
21/04:30am 19.6 21.4 16.4 82 1.9 SSW 2 7 1 4 1015.0 1014.8 0.0
21/04:00am 19.9 21.8 15.7 77 2.5 CALM 0 4 0 2 1014.7 1014.5 0.0
21/03:30am 20.8 21.7 16.0 74 2.9 S 6 9 3 5 1014.7 1014.5 0.0
21/03:00am 21.2 21.6 16.2 73 3.0 SSW 9 13 5 7 1014.8 1014.6 0.0
21/02:30am 21.3 22.3 16.9 76 2.7 SSW 7 13 4 7 1015.1 1014.9 0.0
21/02:00am 21.0 22.2 16.8 77 2.6 SW 6 7 3 4 1015.1 1014.9 0.0
21/01:30am 20.6 22.5 16.6 78 2.4 SW 2 6 1 3 1015.4 1015.2 0.0
21/01:00am 20.8 22.8 17.0 79 2.3 SW 2 7 1 4 1015.4 1015.2 0.0
21/12:30am 21.5 23.9 17.1 76 2.7 CALM 0 0 0 0 1015.5 1015.3 0.0
21/12:00am 22.0 23.1 17.2 74 2.9 S 7 11 4 6 1015.4 1015.2 0.0
 
Date/Time
EDT
Temp
°C
App
Temp
°C
Dew
Point
°C
Rel
Hum
%
Delta-T
°C
Wind Press
QNH
hPa
Press
MSL
hPa
Rain since
9am
mm
Dir  Spd
km/h
Gust
km/h
Spd
kts
Gust
kts
20/11:30pm 22.5 23.4 17.6 74 3.0 SSW 9 13 5 7 1015.7 1015.5 0.0
20/11:00pm 22.2 23.4 18.2 78 2.5 S 9 11 5 6 1015.5 1015.3 0.0
20/10:30pm 21.6 23.0 17.8 79 2.4 S 7 9 4 5 1015.2 1015.0 0.0
20/10:00pm 21.8 23.3 18.0 79 2.4 S 7 9 4 5 1014.9 1014.7 0.0
20/09:30pm 22.2 23.7 18.0 77 2.6 S 7 9 4 5 1014.6 1014.4 0.0
20/09:00pm 22.9 24.4 18.0 74 3.1 SE 7 9 4 5 1014.0 1013.8 0.0
20/08:30pm 23.0 23.2 17.7 72 3.3 ESE 13 15 7 8 1013.3 1013.2 0.0
20/08:00pm 23.8 23.6 17.5 68 3.9 ESE 15 22 8 12 1012.6 1012.5 0.0
20/07:30pm 24.6 23.4 17.1 63 4.6 E 19 28 10 15 1012.1 1012.0 0.0
20/07:00pm 25.7 23.6 16.3 56 5.8 E 22 28 12 15 1011.5 1011.4 0.0
20/06:30pm 26.8 23.8 15.8 51 6.7 E 26 33 14 18 1010.7 1010.6 0.0
20/06:00pm 28.1 25.4 15.7 46 7.6 E 24 32 13 17 1010.2 1010.1 0.0
20/05:30pm 29.3 26.5 15.4 42 8.5 E 24 32 13 17 1009.9 1009.8 0.0
20/05:00pm 29.3 26.5 13.1 37 9.6 E 20 30 11 16 1009.6 1009.5 0.0
20/04:30pm 30.3 28.3 15.6 41 9.1 E 20 30 11 16 1009.5 1009.4 0.0
20/04:00pm 30.5 29.1 13.3 35 10.3 SE 13 33 7 18 1009.2 1009.1 0.0
20/03:30pm 31.2 28.3 4.9 19 13.8 E 9 17 5 9 1009.4 1009.3 0.0
20/03:00pm 30.9 28.7 6.0 21 13.3 ESE 7 13 4 7 1009.6 1009.5 0.0
20/02:30pm 30.8 27.5 4.5 19 13.6 SSW 11 17 6 9 1009.9 1009.8 0.0
20/02:00pm 30.3 27.8 8.1 25 12.2 SE 11 22 6 12 1010.3 1010.2 0.0

Other Formats:

Comma delimited format used in spreadsheet applications
http://www.bom.gov.au/fwo/IDN60801/IDN60801.94573.axf

JavaScript Object Notation format (JSON) in row-major order
http://www.bom.gov.au/fwo/IDN60801/IDN60801.94573.json